sensor_id;sensor_type;location;lat;lon;timestamp;P1;durP1;ratioP1;P2;durP2;ratioP2
34924;SDS011;21130;51.728;8.748;2023-04-15T00:02:20;12.60;;;9.60;;
34924;SDS011;21130;51.728;8.748;2023-04-15T00:04:48;12.50;;;10.15;;
34924;SDS011;21130;51.728;8.748;2023-04-15T00:07:15;10.95;;;9.68;;
34924;SDS011;21130;51.728;8.748;2023-04-15T00:09:42;11.57;;;10.13;;
34924;SDS011;21130;51.728;8.748;2023-04-15T00:12:09;11.48;;;9.80;;
34924;SDS011;21130;51.728;8.748;2023-04-15T00:14:36;11.40;;;9.07;;
34924;SDS011;21130;51.728;8.748;2023-04-15T00:17:02;10.32;;;8.80;;
34924;SDS011;21130;51.728;8.748;2023-04-15T00:19:30;11.48;;;9.82;;
34924;SDS011;21130;51.728;8.748;2023-04-15T00:21:58;12.73;;;9.93;;
34924;SDS011;21130;51.728;8.748;2023-04-15T00:24:24;10.82;;;9.50;;
34924;SDS011;21130;51.728;8.748;2023-04-15T00:26:51;12.27;;;10.10;;
34924;SDS011;21130;51.728;8.748;2023-04-15T00:29:17;11.20;;;9.30;;
34924;SDS011;21130;51.728;8.748;2023-04-15T00:31:44;12.60;;;10.07;;
34924;SDS011;21130;51.728;8.748;2023-04-15T00:34:10;11.32;;;10.07;;
34924;SDS011;21130;51.728;8.748;2023-04-15T00:36:40;10.45;;;9.35;;
34924;SDS011;21130;51.728;8.748;2023-04-15T00:39:08;10.65;;;9.55;;
34924;SDS011;21130;51.728;8.748;2023-04-15T00:41:35;10.02;;;8.90;;
34924;SDS011;21130;51.728;8.748;2023-04-15T00:44:03;10.85;;;9.45;;
34924;SDS011;21130;51.728;8.748;2023-04-15T00:46:30;10.35;;;9.02;;
34924;SDS011;21130;51.728;8.748;2023-04-15T00:49:00;11.10;;;9.60;;
34924;SDS011;21130;51.728;8.748;2023-04-15T00:51:30;11.02;;;9.93;;
34924;SDS011;21130;51.728;8.748;2023-04-15T00:53:57;10.63;;;9.52;;
34924;SDS011;21130;51.728;8.748;2023-04-15T00:56:25;10.02;;;8.93;;
34924;SDS011;21130;51.728;8.748;2023-04-15T00:58:53;10.38;;;9.10;;
34924;SDS011;21130;51.728;8.748;2023-04-15T01:01:21;11.75;;;9.70;;
34924;SDS011;21130;51.728;8.748;2023-04-15T01:03:49;10.45;;;9.35;;
34924;SDS011;21130;51.728;8.748;2023-04-15T01:06:16;9.73;;;8.73;;
34924;SDS011;21130;51.728;8.748;2023-04-15T01:08:43;10.07;;;9.07;;
34924;SDS011;21130;51.728;8.748;2023-04-15T01:11:11;11.25;;;9.98;;
34924;SDS011;21130;51.728;8.748;2023-04-15T01:13:39;14.05;;;10.05;;
34924;SDS011;21130;51.728;8.748;2023-04-15T01:16:06;10.57;;;9.50;;
34924;SDS011;21130;51.728;8.748;2023-04-15T01:18:33;11.18;;;9.77;;
34924;SDS011;21130;51.728;8.748;2023-04-15T01:21:00;10.63;;;9.52;;
34924;SDS011;21130;51.728;8.748;2023-04-15T01:23:27;9.82;;;8.93;;
34924;SDS011;21130;51.728;8.748;2023-04-15T01:25:55;10.20;;;9.20;;
34924;SDS011;21130;51.728;8.748;2023-04-15T01:28:23;11.02;;;8.70;;
34924;SDS011;21130;51.728;8.748;2023-04-15T01:31:03;10.57;;;8.77;;
34924;SDS011;21130;51.728;8.748;2023-04-15T01:33:31;10.82;;;9.00;;
34924;SDS011;21130;51.728;8.748;2023-04-15T01:35:57;10.93;;;9.57;;
34924;SDS011;21130;51.728;8.748;2023-04-15T01:38:25;10.15;;;8.95;;
34924;SDS011;21130;51.728;8.748;2023-04-15T01:40:52;9.95;;;8.55;;
34924;SDS011;21130;51.728;8.748;2023-04-15T01:43:20;10.57;;;9.48;;
34924;SDS011;21130;51.728;8.748;2023-04-15T01:45:46;11.20;;;9.68;;
34924;SDS011;21130;51.728;8.748;2023-04-15T01:48:15;10.38;;;9.10;;
34924;SDS011;21130;51.728;8.748;2023-04-15T01:50:42;10.23;;;9.23;;
34924;SDS011;21130;51.728;8.748;2023-04-15T01:53:08;10.40;;;9.15;;
34924;SDS011;21130;51.728;8.748;2023-04-15T01:55:35;11.48;;;9.48;;
34924;SDS011;21130;51.728;8.748;2023-04-15T01:58:02;10.15;;;9.18;;
34924;SDS011;21130;51.728;8.748;2023-04-15T02:00:30;12.45;;;9.90;;
34924;SDS011;21130;51.728;8.748;2023-04-15T02:02:57;10.15;;;9.05;;
34924;SDS011;21130;51.728;8.748;2023-04-15T02:05:23;10.57;;;9.45;;
34924;SDS011;21130;51.728;8.748;2023-04-15T02:07:50;10.85;;;9.70;;
34924;SDS011;21130;51.728;8.748;2023-04-15T02:10:17;11.90;;;9.73;;
34924;SDS011;21130;51.728;8.748;2023-04-15T02:12:44;11.68;;;9.70;;
34924;SDS011;21130;51.728;8.748;2023-04-15T02:15:11;12.75;;;9.93;;
34924;SDS011;21130;51.728;8.748;2023-04-15T02:17:38;10.75;;;9.65;;
34924;SDS011;21130;51.728;8.748;2023-04-15T02:20:05;10.60;;;9.45;;
34924;SDS011;21130;51.728;8.748;2023-04-15T02:22:34;11.80;;;10.60;;
34924;SDS011;21130;51.728;8.748;2023-04-15T02:25:01;12.27;;;10.32;;
34924;SDS011;21130;51.728;8.748;2023-04-15T02:27:27;12.40;;;10.20;;
34924;SDS011;21130;51.728;8.748;2023-04-15T02:29:54;12.45;;;9.98;;
34924;SDS011;21130;51.728;8.748;2023-04-15T02:32:21;13.77;;;10.68;;
34924;SDS011;21130;51.728;8.748;2023-04-15T02:34:49;13.25;;;10.75;;
34924;SDS011;21130;51.728;8.748;2023-04-15T02:37:16;11.93;;;10.15;;
34924;SDS011;21130;51.728;8.748;2023-04-15T02:39:44;11.77;;;9.85;;
34924;SDS011;21130;51.728;8.748;2023-04-15T02:42:11;11.18;;;9.98;;
34924;SDS011;21130;51.728;8.748;2023-04-15T02:44:37;12.75;;;11.38;;
34924;SDS011;21130;51.728;8.748;2023-04-15T02:47:04;14.02;;;10.82;;
34924;SDS011;21130;51.728;8.748;2023-04-15T02:49:31;12.55;;;11.20;;
34924;SDS011;21130;51.728;8.748;2023-04-15T02:51:59;12.77;;;11.38;;
34924;SDS011;21130;51.728;8.748;2023-04-15T02:54:25;15.20;;;12.55;;
34924;SDS011;21130;51.728;8.748;2023-04-15T02:56:53;13.50;;;11.07;;
34924;SDS011;21130;51.728;8.748;2023-04-15T02:59:21;15.63;;;12.73;;
34924;SDS011;21130;51.728;8.748;2023-04-15T03:01:47;12.73;;;11.15;;
34924;SDS011;21130;51.728;8.748;2023-04-15T03:04:14;13.23;;;11.73;;
34924;SDS011;21130;51.728;8.748;2023-04-15T03:06:40;17.67;;;12.00;;
34924;SDS011;21130;51.728;8.748;2023-04-15T03:09:08;13.20;;;11.80;;
34924;SDS011;21130;51.728;8.748;2023-04-15T03:11:34;15.02;;;12.23;;
34924;SDS011;21130;51.728;8.748;2023-04-15T03:14:04;15.32;;;12.07;;
34924;SDS011;21130;51.728;8.748;2023-04-15T03:16:31;13.82;;;12.38;;
34924;SDS011;21130;51.728;8.748;2023-04-15T03:18:57;13.93;;;12.43;;
34924;SDS011;21130;51.728;8.748;2023-04-15T03:21:24;14.40;;;12.90;;
34924;SDS011;21130;51.728;8.748;2023-04-15T03:23:50;15.20;;;13.07;;
34924;SDS011;21130;51.728;8.748;2023-04-15T03:26:25;14.88;;;12.57;;
34924;SDS011;21130;51.728;8.748;2023-04-15T03:28:52;15.98;;;12.13;;
34924;SDS011;21130;51.728;8.748;2023-04-15T03:31:19;13.63;;;12.23;;
34924;SDS011;21130;51.728;8.748;2023-04-15T03:33:46;14.43;;;12.98;;
34924;SDS011;21130;51.728;8.748;2023-04-15T03:36:12;30.33;;;21.58;;
34924;SDS011;21130;51.728;8.748;2023-04-15T03:38:39;32.20;;;22.23;;
34924;SDS011;21130;51.728;8.748;2023-04-15T03:41:06;37.65;;;27.40;;
34924;SDS011;21130;51.728;8.748;2023-04-15T03:43:34;224.55;;;134.65;;
34924;SDS011;21130;51.728;8.748;2023-04-15T03:46:01;439.13;;;281.67;;
34924;SDS011;21130;51.728;8.748;2023-04-15T03:48:27;488.65;;;333.52;;
34924;SDS011;21130;51.728;8.748;2023-04-15T03:50:54;448.23;;;303.33;;
34924;SDS011;21130;51.728;8.748;2023-04-15T03:53:20;445.65;;;300.15;;
34924;SDS011;21130;51.728;8.748;2023-04-15T03:55:47;479.55;;;326.15;;
34924;SDS011;21130;51.728;8.748;2023-04-15T03:58:14;475.50;;;317.38;;
34924;SDS011;21130;51.728;8.748;2023-04-15T04:00:42;453.90;;;304.88;;
34924;SDS011;21130;51.728;8.748;2023-04-15T04:03:08;443.98;;;289.63;;
34924;SDS011;21130;51.728;8.748;2023-04-15T04:05:35;386.05;;;247.32;;
34924;SDS011;21130;51.728;8.748;2023-04-15T04:08:03;328.30;;;198.25;;
34924;SDS011;21130;51.728;8.748;2023-04-15T04:10:29;304.60;;;186.48;;
34924;SDS011;21130;51.728;8.748;2023-04-15T04:12:56;199.43;;;122.70;;
34924;SDS011;21130;51.728;8.748;2023-04-15T04:15:25;179.65;;;114.45;;
34924;SDS011;21130;51.728;8.748;2023-04-15T04:17:53;181.65;;;119.10;;
34924;SDS011;21130;51.728;8.748;2023-04-15T04:20:20;207.73;;;131.90;;
34924;SDS011;21130;51.728;8.748;2023-04-15T04:22:46;188.93;;;119.85;;
34924;SDS011;21130;51.728;8.748;2023-04-15T04:25:12;189.80;;;120.95;;
34924;SDS011;21130;51.728;8.748;2023-04-15T04:27:39;194.43;;;122.97;;
34924;SDS011;21130;51.728;8.748;2023-04-15T04:30:06;200.18;;;127.43;;
34924;SDS011;21130;51.728;8.748;2023-04-15T04:32:33;201.05;;;126.68;;
34924;SDS011;21130;51.728;8.748;2023-04-15T04:35:01;194.18;;;126.65;;
34924;SDS011;21130;51.728;8.748;2023-04-15T04:37:27;185.38;;;119.60;;
34924;SDS011;21130;51.728;8.748;2023-04-15T04:39:54;198.95;;;129.15;;
34924;SDS011;21130;51.728;8.748;2023-04-15T04:42:20;184.82;;;120.05;;
34924;SDS011;21130;51.728;8.748;2023-04-15T04:44:47;169.10;;;117.93;;
34924;SDS011;21130;51.728;8.748;2023-04-15T04:47:13;193.05;;;126.35;;
34924;SDS011;21130;51.728;8.748;2023-04-15T04:49:40;202.43;;;132.50;;
34924;SDS011;21130;51.728;8.748;2023-04-15T04:52:08;184.35;;;123.55;;
34924;SDS011;21130;51.728;8.748;2023-04-15T04:54:35;156.15;;;107.00;;
34924;SDS011;21130;51.728;8.748;2023-04-15T04:57:01;120.22;;;80.18;;
34924;SDS011;21130;51.728;8.748;2023-04-15T04:59:27;102.15;;;72.97;;
34924;SDS011;21130;51.728;8.748;2023-04-15T05:01:54;103.05;;;70.20;;
34924;SDS011;21130;51.728;8.748;2023-04-15T05:04:21;65.78;;;46.45;;
34924;SDS011;21130;51.728;8.748;2023-04-15T05:06:48;74.68;;;51.75;;
34924;SDS011;21130;51.728;8.748;2023-04-15T05:09:15;64.25;;;45.67;;
34924;SDS011;21130;51.728;8.748;2023-04-15T05:11:42;57.47;;;43.38;;
34924;SDS011;21130;51.728;8.748;2023-04-15T05:14:08;56.55;;;40.47;;
34924;SDS011;21130;51.728;8.748;2023-04-15T05:16:35;47.90;;;36.17;;
34924;SDS011;21130;51.728;8.748;2023-04-15T05:19:01;47.05;;;38.22;;
34924;SDS011;21130;51.728;8.748;2023-04-15T05:21:27;44.45;;;32.00;;
34924;SDS011;21130;51.728;8.748;2023-04-15T05:23:55;39.10;;;30.35;;
34924;SDS011;21130;51.728;8.748;2023-04-15T05:26:41;37.40;;;29.65;;
34924;SDS011;21130;51.728;8.748;2023-04-15T05:29:26;24.23;;;20.52;;
34924;SDS011;21130;51.728;8.748;2023-04-15T05:32:11;22.65;;;19.85;;
34924;SDS011;21130;51.728;8.748;2023-04-15T05:34:56;21.20;;;18.85;;
34924;SDS011;21130;51.728;8.748;2023-04-15T05:37:23;20.02;;;17.15;;
34924;SDS011;21130;51.728;8.748;2023-04-15T05:39:50;19.77;;;17.17;;
34924;SDS011;21130;51.728;8.748;2023-04-15T05:42:17;18.95;;;16.88;;
34924;SDS011;21130;51.728;8.748;2023-04-15T05:44:44;20.40;;;17.80;;
34924;SDS011;21130;51.728;8.748;2023-04-15T05:47:10;19.73;;;16.50;;
34924;SDS011;21130;51.728;8.748;2023-04-15T05:49:37;18.33;;;16.35;;
34924;SDS011;21130;51.728;8.748;2023-04-15T05:52:03;19.50;;;15.68;;
34924;SDS011;21130;51.728;8.748;2023-04-15T05:54:32;17.63;;;15.73;;
34924;SDS011;21130;51.728;8.748;2023-04-15T05:56:59;20.95;;;15.63;;
34924;SDS011;21130;51.728;8.748;2023-04-15T05:59:27;17.83;;;15.30;;
34924;SDS011;21130;51.728;8.748;2023-04-15T06:01:53;17.60;;;15.63;;
34924;SDS011;21130;51.728;8.748;2023-04-15T06:11:11;16.92;;;15.13;;
34924;SDS011;21130;51.728;8.748;2023-04-15T06:13:37;16.45;;;14.75;;
34924;SDS011;21130;51.728;8.748;2023-04-15T06:16:06;18.42;;;15.48;;
34924;SDS011;21130;51.728;8.748;2023-04-15T06:18:32;19.38;;;16.08;;
34924;SDS011;21130;51.728;8.748;2023-04-15T06:20:59;17.77;;;15.38;;
34924;SDS011;21130;51.728;8.748;2023-04-15T06:23:25;17.55;;;15.65;;
34924;SDS011;21130;51.728;8.748;2023-04-15T06:25:52;17.75;;;15.63;;
34924;SDS011;21130;51.728;8.748;2023-04-15T06:28:18;23.65;;;15.75;;
34924;SDS011;21130;51.728;8.748;2023-04-15T06:30:45;17.15;;;15.45;;
34924;SDS011;21130;51.728;8.748;2023-04-15T06:33:12;17.77;;;15.40;;
34924;SDS011;21130;51.728;8.748;2023-04-15T06:35:39;18.75;;;16.05;;
34924;SDS011;21130;51.728;8.748;2023-04-15T06:38:05;18.70;;;16.42;;
34924;SDS011;21130;51.728;8.748;2023-04-15T06:40:31;18.50;;;16.50;;
34924;SDS011;21130;51.728;8.748;2023-04-15T06:42:58;17.92;;;16.13;;
34924;SDS011;21130;51.728;8.748;2023-04-15T06:45:25;20.90;;;16.20;;
34924;SDS011;21130;51.728;8.748;2023-04-15T06:47:51;18.40;;;16.40;;
34924;SDS011;21130;51.728;8.748;2023-04-15T06:50:19;20.83;;;17.17;;
34924;SDS011;21130;51.728;8.748;2023-04-15T06:52:45;19.35;;;16.73;;
34924;SDS011;21130;51.728;8.748;2023-04-15T06:55:12;18.48;;;16.48;;
34924;SDS011;21130;51.728;8.748;2023-04-15T06:57:38;18.30;;;16.40;;
34924;SDS011;21130;51.728;8.748;2023-04-15T07:00:05;22.15;;;16.95;;
34924;SDS011;21130;51.728;8.748;2023-04-15T07:02:35;20.25;;;17.52;;
34924;SDS011;21130;51.728;8.748;2023-04-15T07:05:01;19.38;;;17.35;;
34924;SDS011;21130;51.728;8.748;2023-04-15T07:07:30;19.58;;;17.25;;
34924;SDS011;21130;51.728;8.748;2023-04-15T07:16:09;21.48;;;18.48;;
34924;SDS011;21130;51.728;8.748;2023-04-15T07:18:35;24.52;;;19.42;;
34924;SDS011;21130;51.728;8.748;2023-04-15T07:21:02;21.45;;;18.60;;
34924;SDS011;21130;51.728;8.748;2023-04-15T07:23:30;22.15;;;19.52;;
34924;SDS011;21130;51.728;8.748;2023-04-15T07:25:56;23.88;;;19.45;;
34924;SDS011;21130;51.728;8.748;2023-04-15T07:28:23;24.13;;;19.45;;
34924;SDS011;21130;51.728;8.748;2023-04-15T07:30:49;24.40;;;19.98;;
34924;SDS011;21130;51.728;8.748;2023-04-15T07:33:16;21.02;;;18.80;;
34924;SDS011;21130;51.728;8.748;2023-04-15T07:35:42;23.20;;;20.20;;
34924;SDS011;21130;51.728;8.748;2023-04-15T07:38:09;24.58;;;20.15;;
34924;SDS011;21130;51.728;8.748;2023-04-15T07:40:38;22.83;;;20.05;;
34924;SDS011;21130;51.728;8.748;2023-04-15T07:43:04;26.58;;;21.42;;
34924;SDS011;21130;51.728;8.748;2023-04-15T07:45:31;24.80;;;21.08;;
34924;SDS011;21130;51.728;8.748;2023-04-15T07:47:58;25.40;;;21.13;;
34924;SDS011;21130;51.728;8.748;2023-04-15T07:50:24;27.25;;;21.65;;
34924;SDS011;21130;51.728;8.748;2023-04-15T07:52:51;27.27;;;21.80;;
34924;SDS011;21130;51.728;8.748;2023-04-15T07:55:17;23.92;;;21.33;;
34924;SDS011;21130;51.728;8.748;2023-04-15T07:57:48;28.20;;;21.80;;
34924;SDS011;21130;51.728;8.748;2023-04-15T08:00:15;25.05;;;20.38;;
34924;SDS011;21130;51.728;8.748;2023-04-15T08:02:42;25.60;;;21.85;;
34924;SDS011;21130;51.728;8.748;2023-04-15T08:05:10;28.15;;;22.10;;
34924;SDS011;21130;51.728;8.748;2023-04-15T08:07:37;23.50;;;20.08;;
34924;SDS011;21130;51.728;8.748;2023-04-15T08:10:04;23.70;;;20.10;;
34924;SDS011;21130;51.728;8.748;2023-04-15T08:12:32;22.98;;;19.23;;
34924;SDS011;21130;51.728;8.748;2023-04-15T08:15:00;25.38;;;20.23;;
34924;SDS011;21130;51.728;8.748;2023-04-15T08:17:27;25.35;;;21.52;;
34924;SDS011;21130;51.728;8.748;2023-04-15T08:19:54;25.17;;;21.63;;
34924;SDS011;21130;51.728;8.748;2023-04-15T08:22:21;26.92;;;23.05;;
34924;SDS011;21130;51.728;8.748;2023-04-15T08:24:48;30.92;;;24.40;;
34924;SDS011;21130;51.728;8.748;2023-04-15T08:27:14;32.47;;;25.38;;
34924;SDS011;21130;51.728;8.748;2023-04-15T08:29:40;32.28;;;26.38;;
34924;SDS011;21130;51.728;8.748;2023-04-15T08:32:08;34.42;;;27.42;;
34924;SDS011;21130;51.728;8.748;2023-04-15T08:34:35;34.33;;;27.52;;
34924;SDS011;21130;51.728;8.748;2023-04-15T08:37:01;35.15;;;27.52;;
34924;SDS011;21130;51.728;8.748;2023-04-15T08:39:28;35.65;;;26.98;;
34924;SDS011;21130;51.728;8.748;2023-04-15T08:41:55;30.75;;;23.98;;
34924;SDS011;21130;51.728;8.748;2023-04-15T08:44:25;28.65;;;22.50;;
34924;SDS011;21130;51.728;8.748;2023-04-15T08:46:55;28.13;;;22.15;;
34924;SDS011;21130;51.728;8.748;2023-04-15T08:49:23;28.42;;;21.70;;
34924;SDS011;21130;51.728;8.748;2023-04-15T08:51:52;25.50;;;19.75;;
34924;SDS011;21130;51.728;8.748;2023-04-15T08:54:20;27.42;;;21.00;;
34924;SDS011;21130;51.728;8.748;2023-04-15T08:56:47;27.88;;;20.95;;
34924;SDS011;21130;51.728;8.748;2023-04-15T08:59:14;21.65;;;17.67;;
34924;SDS011;21130;51.728;8.748;2023-04-15T09:01:41;21.75;;;18.05;;
34924;SDS011;21130;51.728;8.748;2023-04-15T09:04:07;24.63;;;18.83;;
34924;SDS011;21130;51.728;8.748;2023-04-15T09:06:36;23.48;;;18.55;;
34924;SDS011;21130;51.728;8.748;2023-04-15T09:09:05;24.60;;;18.73;;
34924;SDS011;21130;51.728;8.748;2023-04-15T09:11:32;21.85;;;17.48;;
34924;SDS011;21130;51.728;8.748;2023-04-15T09:13:59;21.25;;;17.35;;
34924;SDS011;21130;51.728;8.748;2023-04-15T09:16:25;24.70;;;19.13;;
34924;SDS011;21130;51.728;8.748;2023-04-15T09:18:53;22.48;;;17.35;;
34924;SDS011;21130;51.728;8.748;2023-04-15T09:21:19;19.02;;;15.65;;
34924;SDS011;21130;51.728;8.748;2023-04-15T09:23:54;21.17;;;15.63;;
34924;SDS011;21130;51.728;8.748;2023-04-15T09:26:32;19.13;;;14.95;;
34924;SDS011;21130;51.728;8.748;2023-04-15T09:29:06;19.42;;;15.07;;
34924;SDS011;21130;51.728;8.748;2023-04-15T09:31:33;19.55;;;15.20;;
34924;SDS011;21130;51.728;8.748;2023-04-15T09:34:00;22.38;;;15.48;;
34924;SDS011;21130;51.728;8.748;2023-04-15T09:36:27;22.27;;;17.42;;
34924;SDS011;21130;51.728;8.748;2023-04-15T09:38:56;21.35;;;16.63;;
34924;SDS011;21130;51.728;8.748;2023-04-15T09:41:23;23.83;;;18.00;;
34924;SDS011;21130;51.728;8.748;2023-04-15T09:43:50;18.45;;;14.68;;
34924;SDS011;21130;51.728;8.748;2023-04-15T09:46:17;19.58;;;15.05;;
34924;SDS011;21130;51.728;8.748;2023-04-15T09:48:43;17.13;;;13.20;;
34924;SDS011;21130;51.728;8.748;2023-04-15T09:51:10;14.57;;;12.15;;
34924;SDS011;21130;51.728;8.748;2023-04-15T09:53:36;14.98;;;11.90;;
34924;SDS011;21130;51.728;8.748;2023-04-15T09:56:04;14.73;;;11.95;;
34924;SDS011;21130;51.728;8.748;2023-04-15T09:58:33;15.55;;;11.48;;
34924;SDS011;21130;51.728;8.748;2023-04-15T10:01:03;13.18;;;10.80;;
34924;SDS011;21130;51.728;8.748;2023-04-15T10:03:31;12.55;;;10.73;;
34924;SDS011;21130;51.728;8.748;2023-04-15T10:05:59;15.30;;;10.85;;
34924;SDS011;21130;51.728;8.748;2023-04-15T10:08:28;13.63;;;11.50;;
34924;SDS011;21130;51.728;8.748;2023-04-15T10:10:58;13.93;;;11.18;;
34924;SDS011;21130;51.728;8.748;2023-04-15T10:13:28;13.88;;;11.43;;
34924;SDS011;21130;51.728;8.748;2023-04-15T10:15:57;12.95;;;10.88;;
34924;SDS011;21130;51.728;8.748;2023-04-15T10:18:27;14.25;;;11.55;;
34924;SDS011;21130;51.728;8.748;2023-04-15T10:20:54;15.35;;;11.73;;
34924;SDS011;21130;51.728;8.748;2023-04-15T10:23:21;13.88;;;11.68;;
34924;SDS011;21130;51.728;8.748;2023-04-15T10:25:48;13.02;;;11.32;;
34924;SDS011;21130;51.728;8.748;2023-04-15T10:28:17;14.32;;;11.60;;
34924;SDS011;21130;51.728;8.748;2023-04-15T10:30:48;15.30;;;11.43;;
34924;SDS011;21130;51.728;8.748;2023-04-15T10:33:16;12.90;;;10.82;;
34924;SDS011;21130;51.728;8.748;2023-04-15T10:35:45;15.25;;;12.13;;
34924;SDS011;21130;51.728;8.748;2023-04-15T10:38:33;15.18;;;11.63;;
34924;SDS011;21130;51.728;8.748;2023-04-15T10:41:11;13.95;;;11.68;;
34924;SDS011;21130;51.728;8.748;2023-04-15T10:43:39;13.07;;;11.35;;
34924;SDS011;21130;51.728;8.748;2023-04-15T10:46:07;15.07;;;11.68;;
34924;SDS011;21130;51.728;8.748;2023-04-15T10:48:33;13.85;;;12.10;;
34924;SDS011;21130;51.728;8.748;2023-04-15T10:51:00;14.90;;;13.18;;
34924;SDS011;21130;51.728;8.748;2023-04-15T10:53:28;13.98;;;12.02;;
34924;SDS011;21130;51.728;8.748;2023-04-15T10:55:55;14.18;;;11.20;;
34924;SDS011;21130;51.728;8.748;2023-04-15T10:58:22;16.80;;;12.18;;
34924;SDS011;21130;51.728;8.748;2023-04-15T11:00:49;13.98;;;11.85;;
34924;SDS011;21130;51.728;8.748;2023-04-15T11:03:20;14.60;;;11.68;;
34924;SDS011;21130;51.728;8.748;2023-04-15T11:06:02;14.23;;;11.85;;
34924;SDS011;21130;51.728;8.748;2023-04-15T11:11:23;14.07;;;11.32;;
34924;SDS011;21130;51.728;8.748;2023-04-15T11:14:54;12.23;;;10.93;;
34924;SDS011;21130;51.728;8.748;2023-04-15T11:17:25;12.18;;;10.25;;
34924;SDS011;21130;51.728;8.748;2023-04-15T11:19:55;12.57;;;11.25;;
34924;SDS011;21130;51.728;8.748;2023-04-15T11:22:21;14.05;;;11.30;;
34924;SDS011;21130;51.728;8.748;2023-04-15T11:24:48;13.52;;;11.63;;
34924;SDS011;21130;51.728;8.748;2023-04-15T11:27:19;13.80;;;10.80;;
34924;SDS011;21130;51.728;8.748;2023-04-15T11:29:46;14.05;;;11.27;;
34924;SDS011;21130;51.728;8.748;2023-04-15T11:32:13;12.88;;;11.40;;
34924;SDS011;21130;51.728;8.748;2023-04-15T11:34:39;13.20;;;11.00;;
34924;SDS011;21130;51.728;8.748;2023-04-15T11:37:07;12.70;;;11.25;;
34924;SDS011;21130;51.728;8.748;2023-04-15T11:39:34;12.80;;;11.15;;
34924;SDS011;21130;51.728;8.748;2023-04-15T11:42:02;13.48;;;10.63;;
34924;SDS011;21130;51.728;8.748;2023-04-15T11:44:28;11.75;;;9.93;;
34924;SDS011;21130;51.728;8.748;2023-04-15T11:46:55;11.93;;;9.93;;
34924;SDS011;21130;51.728;8.748;2023-04-15T11:49:25;11.30;;;10.07;;
34924;SDS011;21130;51.728;8.748;2023-04-15T11:51:52;13.60;;;10.95;;
34924;SDS011;21130;51.728;8.748;2023-04-15T11:54:19;13.23;;;10.88;;
34924;SDS011;21130;51.728;8.748;2023-04-15T11:56:48;14.20;;;11.00;;
34924;SDS011;21130;51.728;8.748;2023-04-15T11:59:15;11.48;;;10.02;;
34924;SDS011;21130;51.728;8.748;2023-04-15T12:01:42;10.82;;;9.57;;
34924;SDS011;21130;51.728;8.748;2023-04-15T12:04:10;10.15;;;8.98;;
34924;SDS011;21130;51.728;8.748;2023-04-15T12:06:37;11.30;;;9.98;;
34924;SDS011;21130;51.728;8.748;2023-04-15T12:09:08;10.18;;;9.15;;
34924;SDS011;21130;51.728;8.748;2023-04-15T12:11:41;10.68;;;9.63;;
34924;SDS011;21130;51.728;8.748;2023-04-15T12:14:22;11.60;;;9.48;;
34924;SDS011;21130;51.728;8.748;2023-04-15T12:16:51;10.75;;;9.65;;
34924;SDS011;21130;51.728;8.748;2023-04-15T12:19:22;10.43;;;9.23;;
34924;SDS011;21130;51.728;8.748;2023-04-15T12:21:50;10.55;;;9.45;;
34924;SDS011;21130;51.728;8.748;2023-04-15T12:24:19;11.63;;;10.32;;
34924;SDS011;21130;51.728;8.748;2023-04-15T12:26:49;11.10;;;9.98;;
34924;SDS011;21130;51.728;8.748;2023-04-15T12:29:18;11.50;;;9.75;;
34924;SDS011;21130;51.728;8.748;2023-04-15T12:31:49;11.18;;;10.00;;
34924;SDS011;21130;51.728;8.748;2023-04-15T12:34:17;10.48;;;9.38;;
34924;SDS011;21130;51.728;8.748;2023-04-15T12:36:50;11.15;;;9.18;;
34924;SDS011;21130;51.728;8.748;2023-04-15T12:39:17;11.10;;;9.45;;
34924;SDS011;21130;51.728;8.748;2023-04-15T12:41:48;10.13;;;9.02;;
34924;SDS011;21130;51.728;8.748;2023-04-15T12:44:15;11.07;;;9.95;;
34924;SDS011;21130;51.728;8.748;2023-04-15T12:46:41;11.23;;;10.13;;
34924;SDS011;21130;51.728;8.748;2023-04-15T12:49:08;10.88;;;9.77;;
34924;SDS011;21130;51.728;8.748;2023-04-15T12:51:34;11.05;;;9.80;;
34924;SDS011;21130;51.728;8.748;2023-04-15T12:54:01;10.63;;;9.52;;
34924;SDS011;21130;51.728;8.748;2023-04-15T12:56:27;10.50;;;9.48;;
34924;SDS011;21130;51.728;8.748;2023-04-15T12:58:55;10.35;;;9.35;;
34924;SDS011;21130;51.728;8.748;2023-04-15T13:01:21;10.98;;;9.98;;
34924;SDS011;21130;51.728;8.748;2023-04-15T13:03:48;10.60;;;9.50;;
34924;SDS011;21130;51.728;8.748;2023-04-15T13:06:15;10.05;;;9.15;;
34924;SDS011;21130;51.728;8.748;2023-04-15T13:08:42;10.40;;;9.45;;
34924;SDS011;21130;51.728;8.748;2023-04-15T13:11:08;13.17;;;11.97;;
34924;SDS011;21130;51.728;8.748;2023-04-15T13:13:35;11.45;;;10.45;;
34924;SDS011;21130;51.728;8.748;2023-04-15T13:16:03;10.27;;;9.27;;
34924;SDS011;21130;51.728;8.748;2023-04-15T13:18:31;8.82;;;8.02;;
34924;SDS011;21130;51.728;8.748;2023-04-15T13:20:58;9.82;;;8.93;;
34924;SDS011;21130;51.728;8.748;2023-04-15T13:23:25;11.30;;;10.40;;
34924;SDS011;21130;51.728;8.748;2023-04-15T13:25:51;10.37;;;9.57;;
34924;SDS011;21130;51.728;8.748;2023-04-15T13:28:18;10.00;;;9.20;;
34924;SDS011;21130;51.728;8.748;2023-04-15T13:30:44;9.40;;;8.70;;
34924;SDS011;21130;51.728;8.748;2023-04-15T13:33:15;9.97;;;9.17;;
34924;SDS011;21130;51.728;8.748;2023-04-15T13:35:41;9.60;;;8.90;;
34924;SDS011;21130;51.728;8.748;2023-04-15T13:38:08;9.80;;;9.00;;
34924;SDS011;21130;51.728;8.748;2023-04-15T13:40:34;9.27;;;8.48;;
34924;SDS011;21130;51.728;8.748;2023-04-15T13:43:01;9.05;;;8.25;;
34924;SDS011;21130;51.728;8.748;2023-04-15T13:45:28;9.32;;;8.63;;
34924;SDS011;21130;51.728;8.748;2023-04-15T13:47:54;9.43;;;8.70;;
34924;SDS011;21130;51.728;8.748;2023-04-15T13:50:22;9.38;;;8.68;;
34924;SDS011;21130;51.728;8.748;2023-04-15T13:52:49;9.37;;;8.67;;
34924;SDS011;21130;51.728;8.748;2023-04-15T13:55:15;9.70;;;8.90;;
34924;SDS011;21130;51.728;8.748;2023-04-15T13:57:42;10.52;;;9.73;;
34924;SDS011;21130;51.728;8.748;2023-04-15T14:00:09;9.70;;;9.00;;
34924;SDS011;21130;51.728;8.748;2023-04-15T14:02:36;9.63;;;8.82;;
34924;SDS011;21130;51.728;8.748;2023-04-15T14:05:02;9.98;;;9.18;;
34924;SDS011;21130;51.728;8.748;2023-04-15T14:07:31;9.73;;;8.87;;
34924;SDS011;21130;51.728;8.748;2023-04-15T14:09:57;9.95;;;9.05;;
34924;SDS011;21130;51.728;8.748;2023-04-15T14:12:24;10.25;;;9.45;;
34924;SDS011;21130;51.728;8.748;2023-04-15T14:14:51;9.85;;;9.05;;
34924;SDS011;21130;51.728;8.748;2023-04-15T14:17:18;10.07;;;9.18;;
34924;SDS011;21130;51.728;8.748;2023-04-15T14:19:44;9.13;;;8.43;;
34924;SDS011;21130;51.728;8.748;2023-04-15T14:22:11;9.40;;;8.60;;
34924;SDS011;21130;51.728;8.748;2023-04-15T14:24:39;9.63;;;8.82;;
34924;SDS011;21130;51.728;8.748;2023-04-15T14:27:05;9.10;;;8.32;;
34924;SDS011;21130;51.728;8.748;2023-04-15T14:29:32;9.00;;;8.30;;
34924;SDS011;21130;51.728;8.748;2023-04-15T14:31:59;10.25;;;9.38;;
34924;SDS011;21130;51.728;8.748;2023-04-15T14:34:25;9.50;;;8.70;;
34924;SDS011;21130;51.728;8.748;2023-04-15T14:36:52;10.20;;;9.30;;
34924;SDS011;21130;51.728;8.748;2023-04-15T14:39:18;10.73;;;9.75;;
34924;SDS011;21130;51.728;8.748;2023-04-15T14:41:46;11.77;;;10.77;;
34924;SDS011;21130;51.728;8.748;2023-04-15T14:44:13;12.70;;;11.60;;